createdAt,value
2019-03-17T00:01:12.206Z,4.90
2019-03-17T00:03:42.647Z,4.80
2019-03-17T00:06:13.354Z,4.80
2019-03-17T00:08:43.975Z,4.80
2019-03-17T00:11:14.637Z,4.80
2019-03-17T00:13:45.544Z,4.80
2019-03-17T00:16:16.597Z,4.80
2019-03-17T00:18:47.574Z,4.80
2019-03-17T00:21:19.072Z,4.80
2019-03-17T00:23:49.902Z,4.90
2019-03-17T00:26:20.501Z,4.90
2019-03-17T00:28:51.315Z,4.90
2019-03-17T00:31:24.233Z,4.90
2019-03-17T00:33:54.288Z,4.90
2019-03-17T00:36:25.016Z,4.90
2019-03-17T00:38:55.711Z,4.90
2019-03-17T00:41:26.391Z,5.00
2019-03-17T00:43:57.031Z,5.00
2019-03-17T00:46:29.131Z,5.10
2019-03-17T00:48:59.777Z,5.10
2019-03-17T00:51:30.814Z,5.10
2019-03-17T00:54:01.535Z,5.10
2019-03-17T00:56:32.116Z,5.10
2019-03-17T00:59:03.092Z,5.20
2019-03-17T01:01:33.817Z,5.20
2019-03-17T01:04:04.789Z,5.20
2019-03-17T01:06:35.745Z,5.20
2019-03-17T01:09:07.517Z,5.30
2019-03-17T01:11:38.084Z,5.20
2019-03-17T01:14:09.161Z,5.30
2019-03-17T01:16:40.000Z,5.30
2019-03-17T01:19:10.884Z,5.30
2019-03-17T01:21:41.913Z,5.40
2019-03-17T01:24:12.549Z,5.40
2019-03-17T01:26:43.211Z,5.40
2019-03-17T01:29:13.953Z,5.40
2019-03-17T01:31:44.641Z,5.50
2019-03-17T01:34:15.217Z,5.60
2019-03-17T01:36:46.136Z,5.70
2019-03-17T01:39:16.690Z,5.70
2019-03-17T01:41:47.387Z,5.80
2019-03-17T01:44:17.967Z,5.80
2019-03-17T01:46:48.742Z,5.80
2019-03-17T01:49:19.373Z,5.80
2019-03-17T01:51:51.307Z,5.80
2019-03-17T01:54:21.894Z,5.80
2019-03-17T01:56:52.407Z,5.80
2019-03-17T01:59:23.064Z,5.80
2019-03-17T02:01:53.726Z,5.80
2019-03-17T02:04:24.523Z,5.80
2019-03-17T02:06:55.369Z,5.80
2019-03-17T02:09:25.909Z,5.80
2019-03-17T02:11:56.641Z,5.80
2019-03-17T02:14:27.223Z,5.70
2019-03-17T02:16:57.899Z,5.70
2019-03-17T02:19:28.569Z,5.60
2019-03-17T02:21:59.158Z,5.60
2019-03-17T02:24:30.359Z,5.60
2019-03-17T02:27:00.926Z,5.60
2019-03-17T02:29:31.474Z,5.50
2019-03-17T02:32:02.075Z,5.50
2019-03-17T02:34:32.685Z,5.40
2019-03-17T02:37:03.290Z,5.50
2019-03-17T02:39:34.392Z,5.40
2019-03-17T02:42:04.991Z,5.40
2019-03-17T02:44:35.595Z,5.40
2019-03-17T02:47:06.537Z,5.30
2019-03-17T02:49:37.157Z,5.30
2019-03-17T02:52:07.854Z,5.20
2019-03-17T02:54:38.484Z,5.20
2019-03-17T02:57:09.070Z,5.10
2019-03-17T02:59:39.798Z,5.10
2019-03-17T03:02:10.463Z,5.00
2019-03-17T03:04:41.147Z,5.00
2019-03-17T03:07:11.783Z,4.90
2019-03-17T03:09:42.439Z,4.90
2019-03-17T03:12:13.159Z,4.90
2019-03-17T03:14:43.932Z,5.00
2019-03-17T03:17:14.896Z,5.10
2019-03-17T03:19:45.706Z,5.10
2019-03-17T03:22:16.364Z,5.10
2019-03-17T03:24:48.170Z,5.20
2019-03-17T03:27:18.823Z,5.20
2019-03-17T03:29:49.411Z,5.20
2019-03-17T03:32:20.191Z,5.20
2019-03-17T03:34:50.752Z,5.20
2019-03-17T03:37:21.512Z,5.20
2019-03-17T03:39:52.211Z,5.10
2019-03-17T03:42:22.870Z,5.10
2019-03-17T03:44:53.504Z,5.10
2019-03-17T03:47:24.058Z,5.00
2019-03-17T03:49:57.144Z,5.10
2019-03-17T03:52:27.159Z,5.10
2019-03-17T03:54:57.680Z,5.10
2019-03-17T03:57:28.303Z,5.10
2019-03-17T03:59:58.952Z,5.10
2019-03-17T04:02:29.651Z,5.10
2019-03-17T04:05:00.634Z,5.20
2019-03-17T04:07:31.501Z,5.20
2019-03-17T04:10:02.076Z,5.30
2019-03-17T04:12:32.782Z,5.40
2019-03-17T04:15:03.411Z,5.40
2019-03-17T04:17:33.963Z,5.50
2019-03-17T04:20:05.166Z,5.50
2019-03-17T04:22:35.809Z,5.40
2019-03-17T04:25:06.426Z,5.50
2019-03-17T04:27:36.946Z,5.40
2019-03-17T04:30:07.812Z,5.40
2019-03-17T04:32:38.436Z,5.40
2019-03-17T04:35:09.364Z,5.40
2019-03-17T04:37:39.974Z,5.30
2019-03-17T04:40:11.280Z,5.30
2019-03-17T04:42:42.230Z,5.30
2019-03-17T04:45:13.261Z,5.30
2019-03-17T04:47:43.895Z,5.20
2019-03-17T04:50:14.570Z,5.20
2019-03-17T04:52:45.195Z,5.20
2019-03-17T04:55:15.728Z,5.20
2019-03-17T04:57:46.395Z,5.20
2019-03-17T05:00:17.379Z,5.20
2019-03-17T05:02:48.211Z,5.10
2019-03-17T05:05:18.842Z,5.10
2019-03-17T05:07:49.397Z,5.10
2019-03-17T05:10:22.735Z,5.10
2019-03-17T05:12:52.431Z,5.10
2019-03-17T05:15:23.043Z,5.10
2019-03-17T05:17:53.927Z,5.00
2019-03-17T05:20:24.579Z,5.10
2019-03-17T05:22:56.209Z,5.00
2019-03-17T05:25:26.885Z,5.00
2019-03-17T05:27:57.539Z,5.10
2019-03-17T05:30:28.096Z,5.10
2019-03-17T05:32:58.867Z,5.10
2019-03-17T05:35:29.424Z,5.10
2019-03-17T05:38:00.085Z,5.20
2019-03-17T05:40:30.748Z,5.10
2019-03-17T05:43:01.423Z,5.20
2019-03-17T05:45:31.990Z,5.20
2019-03-17T05:48:02.609Z,5.20
2019-03-17T05:50:33.486Z,5.30
2019-03-17T05:53:04.150Z,5.30
2019-03-17T05:55:34.672Z,5.40
2019-03-17T05:58:05.331Z,5.50
2019-03-17T06:00:36.314Z,5.60
2019-03-17T06:03:06.897Z,5.70
2019-03-17T06:05:37.878Z,5.90
2019-03-17T06:08:08.562Z,7.40
2019-03-17T06:10:39.505Z,9.70
2019-03-17T06:13:12.307Z,11.00
2019-03-17T06:15:42.862Z,12.00
2019-03-17T06:18:14.533Z,13.10
2019-03-17T06:20:45.207Z,13.90
2019-03-17T06:23:15.858Z,14.80
2019-03-17T06:25:46.655Z,15.70
2019-03-17T06:28:17.379Z,15.50
2019-03-17T06:30:48.049Z,15.80
2019-03-17T06:33:18.645Z,16.60
2019-03-17T06:35:49.431Z,17.70
2019-03-17T06:38:20.123Z,18.00
2019-03-17T06:40:51.201Z,18.00
2019-03-17T06:43:21.729Z,18.00
2019-03-17T06:45:52.429Z,18.80
2019-03-17T06:48:23.245Z,19.20
2019-03-17T06:50:54.015Z,18.90
2019-03-17T06:53:24.766Z,18.40
2019-03-17T06:55:55.427Z,18.30
2019-03-17T06:58:26.115Z,18.10
2019-03-17T07:00:56.912Z,17.40
2019-03-17T07:03:27.862Z,16.90
2019-03-17T07:05:58.889Z,16.90
2019-03-17T07:08:29.633Z,17.10
2019-03-17T07:11:00.330Z,17.80
2019-03-17T07:13:32.096Z,18.40
2019-03-17T07:16:02.626Z,19.90
2019-03-17T07:18:33.318Z,21.10
2019-03-17T07:21:03.982Z,21.60
2019-03-17T07:23:34.714Z,21.90
2019-03-17T07:26:05.550Z,22.10
2019-03-17T07:28:37.439Z,22.20
2019-03-17T07:31:08.143Z,22.70
2019-03-17T07:33:39.488Z,23.40
2019-03-17T07:36:10.035Z,24.30
2019-03-17T07:38:40.739Z,25.30
2019-03-17T07:41:11.251Z,26.40
2019-03-17T07:43:41.828Z,28.20
2019-03-17T07:46:12.489Z,29.90
2019-03-17T07:48:43.175Z,31.60
2019-03-17T07:51:13.876Z,33.90
2019-03-17T07:53:44.468Z,35.60
2019-03-17T07:56:15.139Z,36.70
2019-03-17T07:58:45.769Z,37.20
2019-03-17T08:01:16.439Z,37.70
2019-03-17T08:03:48.438Z,37.70
2019-03-17T08:06:19.119Z,37.00
2019-03-17T08:08:49.718Z,36.30
2019-03-17T08:11:20.387Z,36.20
2019-03-17T08:13:51.094Z,37.10
2019-03-17T08:16:21.999Z,36.80
2019-03-17T08:18:52.787Z,35.50
2019-03-17T08:21:23.349Z,34.90
2019-03-17T08:23:54.082Z,35.00
2019-03-17T08:26:24.623Z,35.50
2019-03-17T08:28:55.214Z,35.90
2019-03-17T08:31:26.145Z,36.80
2019-03-17T08:33:56.879Z,38.60
2019-03-17T08:36:27.555Z,39.70
2019-03-17T08:38:58.337Z,40.40
2019-03-17T08:41:29.034Z,40.20
2019-03-17T08:43:59.651Z,39.60
2019-03-17T08:46:30.311Z,39.60
2019-03-17T08:49:00.837Z,40.40
2019-03-17T08:51:31.589Z,41.20
2019-03-17T08:54:03.254Z,42.10
2019-03-17T08:56:33.952Z,42.90
2019-03-17T08:59:04.689Z,43.60
2019-03-17T09:01:35.544Z,44.20
2019-03-17T09:04:06.633Z,44.80
2019-03-17T09:06:37.238Z,45.10
2019-03-17T09:09:08.911Z,45.50
2019-03-17T09:11:39.632Z,45.70
2019-03-17T09:14:10.395Z,45.90
2019-03-17T09:16:41.147Z,45.80
2019-03-17T09:19:11.935Z,45.50
2019-03-17T09:21:42.478Z,45.30
2019-03-17T09:24:17.435Z,45.00
2019-03-17T09:26:46.117Z,44.50
2019-03-17T09:29:16.807Z,43.90
2019-03-17T09:31:47.441Z,43.90
2019-03-17T09:34:18.173Z,44.00
2019-03-17T09:36:48.812Z,44.10
2019-03-17T09:39:19.461Z,44.00
2019-03-17T09:41:50.133Z,43.80
2019-03-17T09:44:20.699Z,43.90
2019-03-17T09:46:51.283Z,44.10
2019-03-17T09:49:21.948Z,44.10
2019-03-17T09:51:52.507Z,44.10
2019-03-17T09:54:23.102Z,44.00
2019-03-17T09:56:53.728Z,43.90
2019-03-17T09:59:24.386Z,43.80
2019-03-17T10:01:55.165Z,44.00
2019-03-17T10:04:25.747Z,44.00
2019-03-17T10:06:56.334Z,44.00
2019-03-17T10:09:26.995Z,44.00
2019-03-17T10:11:57.759Z,43.70
2019-03-17T10:14:28.410Z,43.50
2019-03-17T10:16:58.954Z,43.30
2019-03-17T10:19:29.613Z,43.00
2019-03-17T10:22:00.350Z,42.50
2019-03-17T10:24:32.037Z,42.10
2019-03-17T10:27:02.720Z,41.40
2019-03-17T10:29:33.295Z,40.60
2019-03-17T10:32:04.007Z,40.10
2019-03-17T10:34:34.623Z,39.90
2019-03-17T10:37:05.301Z,39.60
2019-03-17T10:39:35.979Z,39.30
2019-03-17T10:42:06.603Z,38.90
2019-03-17T10:44:37.312Z,38.30
2019-03-17T10:47:07.987Z,37.50
2019-03-17T10:49:38.607Z,36.50
2019-03-17T10:52:09.293Z,35.30
2019-03-17T10:54:39.995Z,34.20
2019-03-17T10:57:11.092Z,33.10
2019-03-17T10:59:41.871Z,32.00
2019-03-17T11:02:12.532Z,31.20
2019-03-17T11:04:44.206Z,30.40
2019-03-17T11:07:14.886Z,29.60
2019-03-17T11:09:46.765Z,28.90
2019-03-17T11:12:17.441Z,28.50
2019-03-17T11:14:48.195Z,28.40
2019-03-17T11:17:18.862Z,28.30
2019-03-17T11:19:49.585Z,28.20
2019-03-17T11:22:20.134Z,28.10
2019-03-17T11:24:50.773Z,27.80
2019-03-17T11:27:21.435Z,27.40
2019-03-17T11:29:52.009Z,26.90
2019-03-17T11:32:22.669Z,26.90
2019-03-17T11:34:53.383Z,26.80
2019-03-17T11:37:24.150Z,26.70
2019-03-17T11:39:54.797Z,26.40
2019-03-17T11:42:25.427Z,26.00
2019-03-17T11:44:56.370Z,25.50
2019-03-17T11:47:27.028Z,25.20
2019-03-17T11:50:09.077Z,25.00
2019-03-17T11:52:39.644Z,24.70
2019-03-17T11:55:10.576Z,24.40
2019-03-17T11:57:41.519Z,24.20
2019-03-17T12:00:13.559Z,24.00
2019-03-17T12:02:44.195Z,24.00
2019-03-17T12:05:14.856Z,24.10
2019-03-17T12:07:45.531Z,24.20
2019-03-17T12:10:16.305Z,24.20
2019-03-17T12:12:47.452Z,24.00
2019-03-17T12:15:18.075Z,23.70
2019-03-17T12:17:48.664Z,23.60
2019-03-17T12:20:20.415Z,23.50
2019-03-17T12:22:50.936Z,23.30
2019-03-17T12:25:21.553Z,23.40
2019-03-17T12:27:52.473Z,23.50
2019-03-17T12:30:23.639Z,23.70
2019-03-17T12:32:54.710Z,23.80
2019-03-17T12:35:25.381Z,23.80
2019-03-17T12:37:56.155Z,23.50
2019-03-17T12:40:26.982Z,23.10
2019-03-17T12:42:57.704Z,22.90
2019-03-17T12:45:28.280Z,22.60
2019-03-17T12:47:59.005Z,22.40
2019-03-17T12:50:29.782Z,22.00
2019-03-17T12:53:00.444Z,21.60
2019-03-17T12:55:31.004Z,21.20
2019-03-17T12:58:01.680Z,20.90
2019-03-17T13:00:32.330Z,20.70
2019-03-17T13:03:02.942Z,20.50
2019-03-17T13:05:33.638Z,20.40
2019-03-17T13:08:04.367Z,20.20
2019-03-17T13:10:35.004Z,20.10
2019-03-17T13:13:05.545Z,20.00
2019-03-17T13:15:36.238Z,19.90
2019-03-17T13:18:06.963Z,19.80
2019-03-17T13:20:38.139Z,19.70
2019-03-17T13:23:08.913Z,19.60
2019-03-17T13:25:39.638Z,19.50
2019-03-17T13:28:10.442Z,19.40
2019-03-17T13:30:41.254Z,19.40
2019-03-17T13:33:11.918Z,19.60
2019-03-17T13:35:42.635Z,19.60
2019-03-17T13:38:13.436Z,19.50
2019-03-17T13:40:44.509Z,19.40
2019-03-17T13:43:15.074Z,19.20
2019-03-17T13:45:46.096Z,19.10
2019-03-17T13:48:16.776Z,18.90
2019-03-17T13:50:47.670Z,18.70
2019-03-17T13:53:18.253Z,18.50
2019-03-17T13:55:49.013Z,18.40
2019-03-17T13:58:19.675Z,18.20
2019-03-17T14:00:50.456Z,18.10
2019-03-17T14:03:21.222Z,18.00
2019-03-17T14:05:51.838Z,17.90
2019-03-17T14:08:22.351Z,17.80
2019-03-17T14:10:53.069Z,17.70
2019-03-17T14:13:23.664Z,17.60
2019-03-17T14:15:54.715Z,17.50
2019-03-17T14:18:25.412Z,17.40
2019-03-17T14:20:56.078Z,17.30
2019-03-17T14:23:26.737Z,17.20
2019-03-17T14:25:57.421Z,17.20
2019-03-17T14:28:28.235Z,17.20
2019-03-17T14:30:59.925Z,17.30
2019-03-17T14:33:30.717Z,17.50
2019-03-17T14:36:01.434Z,17.60
2019-03-17T14:38:32.123Z,17.50
2019-03-17T14:41:02.763Z,17.40
2019-03-17T14:43:33.405Z,17.30
2019-03-17T14:46:04.187Z,17.10
2019-03-17T14:48:34.862Z,16.80
2019-03-17T14:51:06.534Z,16.60
2019-03-17T14:53:37.191Z,16.40
2019-03-17T14:56:07.894Z,16.10
2019-03-17T14:58:38.502Z,15.90
2019-03-17T15:01:09.187Z,15.70
2019-03-17T15:03:39.996Z,15.40
2019-03-17T15:06:10.578Z,15.20
2019-03-17T15:08:41.448Z,14.70
2019-03-17T15:11:12.195Z,14.30
2019-03-17T15:13:42.798Z,13.80
2019-03-17T15:16:13.419Z,13.50
2019-03-17T15:18:44.052Z,13.10
2019-03-17T15:21:14.852Z,12.80
2019-03-17T15:23:45.784Z,12.60
2019-03-17T15:26:16.863Z,12.30
2019-03-17T15:28:48.080Z,12.10
2019-03-17T15:31:18.722Z,11.80
2019-03-17T15:33:49.443Z,11.70
2019-03-17T15:36:20.555Z,11.40
2019-03-17T15:38:51.359Z,11.20
2019-03-17T15:41:21.981Z,11.10
2019-03-17T15:43:52.530Z,11.00
2019-03-17T15:46:23.195Z,10.80
2019-03-17T15:48:53.795Z,10.80
2019-03-17T15:51:26.395Z,10.70
2019-03-17T15:53:57.080Z,10.60
2019-03-17T15:56:27.818Z,10.50
2019-03-17T15:58:58.908Z,10.50
2019-03-17T16:01:29.462Z,10.40
2019-03-17T16:04:00.115Z,10.30
2019-03-17T16:06:31.095Z,10.20
2019-03-17T16:09:01.836Z,10.10
2019-03-17T16:11:33.930Z,10.10
2019-03-17T16:14:05.821Z,10.00
2019-03-17T16:16:36.422Z,10.00
2019-03-17T16:19:06.981Z,9.90
2019-03-17T16:21:37.875Z,9.90
2019-03-17T16:24:08.588Z,9.80
2019-03-17T16:26:39.199Z,9.80
2019-03-17T16:29:09.925Z,9.70
2019-03-17T16:31:42.636Z,9.70
2019-03-17T16:34:13.827Z,9.70
2019-03-17T16:36:44.534Z,9.60
2019-03-17T16:39:16.051Z,9.60
2019-03-17T16:41:46.723Z,9.50
2019-03-17T16:44:17.419Z,9.50
2019-03-17T16:46:49.152Z,9.50
2019-03-17T16:49:19.765Z,9.40
2019-03-17T16:51:50.512Z,9.50
2019-03-17T16:54:21.517Z,9.40
2019-03-17T16:56:52.169Z,9.40
2019-03-17T16:59:22.866Z,9.30
2019-03-17T17:01:53.607Z,9.30
2019-03-17T17:04:24.240Z,9.30
2019-03-17T17:06:54.885Z,9.30
2019-03-17T17:09:25.502Z,9.30
2019-03-17T17:11:57.466Z,9.30
2019-03-17T17:14:28.241Z,9.30
2019-03-17T17:16:58.967Z,9.30
2019-03-17T17:19:29.734Z,9.30
2019-03-17T17:22:00.398Z,9.30
2019-03-17T17:24:31.135Z,9.30
2019-03-17T17:27:01.772Z,9.20
2019-03-17T17:29:32.526Z,9.20
2019-03-17T17:32:03.277Z,9.20
2019-03-17T17:34:34.562Z,9.20
2019-03-17T17:37:05.385Z,9.20
2019-03-17T17:39:36.066Z,9.10
2019-03-17T17:42:09.870Z,9.10
2019-03-17T17:44:39.193Z,9.10
2019-03-17T17:47:09.873Z,9.10
2019-03-17T17:49:40.493Z,9.00
2019-03-17T17:52:11.219Z,9.00
2019-03-17T17:54:41.875Z,9.00
2019-03-17T17:57:12.434Z,8.90
2019-03-17T17:59:43.140Z,8.90
2019-03-17T18:02:13.767Z,8.90
2019-03-17T18:04:44.489Z,8.90
2019-03-17T18:07:15.231Z,8.90
2019-03-17T18:09:45.851Z,8.90
2019-03-17T18:12:21.145Z,8.90
2019-03-17T18:14:48.898Z,8.90
2019-03-17T18:17:19.635Z,8.90
2019-03-17T18:19:50.412Z,8.90
2019-03-17T18:22:21.026Z,8.90
2019-03-17T18:24:51.597Z,8.90
2019-03-17T18:27:22.425Z,8.80
2019-03-17T18:29:53.133Z,8.80
2019-03-17T18:32:23.865Z,8.80
2019-03-17T18:34:54.554Z,8.80
2019-03-17T18:37:25.249Z,8.80
2019-03-17T18:39:55.981Z,8.80
2019-03-17T18:42:32.895Z,8.80
2019-03-17T18:44:59.308Z,8.70
2019-03-17T18:47:30.184Z,8.70
2019-03-17T18:50:01.079Z,8.70
2019-03-17T18:52:33.184Z,8.70
2019-03-17T18:55:03.977Z,8.70
2019-03-17T18:57:37.412Z,8.70
2019-03-17T19:00:09.859Z,8.60
2019-03-17T19:02:40.873Z,8.60
2019-03-17T19:05:11.891Z,8.60
2019-03-17T19:07:42.506Z,8.60
2019-03-17T19:10:13.531Z,8.50
2019-03-17T19:12:45.755Z,8.50
2019-03-17T19:15:16.503Z,8.50
2019-03-17T19:17:48.428Z,8.60
2019-03-17T19:20:19.095Z,8.60
2019-03-17T19:22:49.825Z,8.60
2019-03-17T19:25:20.509Z,8.70
2019-03-17T19:27:51.216Z,8.70
2019-03-17T19:30:22.855Z,8.70
2019-03-17T19:32:53.853Z,8.80
2019-03-17T19:35:25.119Z,8.80
2019-03-17T19:37:55.930Z,8.80
2019-03-17T19:40:26.651Z,8.80
2019-03-17T19:42:59.664Z,8.90
2019-03-17T19:45:30.006Z,8.90
2019-03-17T19:48:00.779Z,8.90
2019-03-17T19:50:31.533Z,8.90
2019-03-17T19:53:02.390Z,8.90
2019-03-17T19:55:33.206Z,8.80
2019-03-17T19:58:04.111Z,8.80
2019-03-17T20:00:34.928Z,8.80
2019-03-17T20:03:05.680Z,8.80
2019-03-17T20:05:36.479Z,8.80
2019-03-17T20:08:07.320Z,8.80
2019-03-17T20:10:38.107Z,8.80
2019-03-17T20:13:11.906Z,8.80
2019-03-17T20:15:41.212Z,8.80
2019-03-17T20:18:11.967Z,8.70
2019-03-17T20:20:42.796Z,8.70
2019-03-17T20:23:13.483Z,8.70
2019-03-17T20:25:44.255Z,8.60
2019-03-17T20:28:14.845Z,8.50
2019-03-17T20:30:45.571Z,8.40
2019-03-17T20:33:16.545Z,8.30
2019-03-17T20:35:47.360Z,8.30
2019-03-17T20:38:18.241Z,8.20
2019-03-17T20:40:50.729Z,8.20
2019-03-17T20:43:34.325Z,8.10
2019-03-17T20:45:54.151Z,8.10
2019-03-17T20:48:25.336Z,8.10
2019-03-17T20:50:59.183Z,8.00
2019-03-17T20:53:29.449Z,8.00
2019-03-17T20:56:00.134Z,8.00
2019-03-17T20:58:30.909Z,8.10
2019-03-17T21:01:01.582Z,8.10
2019-03-17T21:03:32.255Z,8.20
2019-03-17T21:06:03.002Z,8.20
2019-03-17T21:08:33.638Z,8.20
2019-03-17T21:11:04.280Z,8.20
2019-03-17T21:13:46.260Z,8.20
2019-03-17T21:16:07.278Z,8.10
2019-03-17T21:18:37.838Z,8.20
2019-03-17T21:21:08.535Z,8.10
2019-03-17T21:23:39.074Z,8.10
2019-03-17T21:26:09.935Z,8.10
2019-03-17T21:28:40.617Z,8.10
2019-03-17T21:31:12.238Z,8.20
2019-03-17T21:33:42.961Z,8.10
2019-03-17T21:36:13.625Z,8.10
2019-03-17T21:38:45.668Z,8.10
2019-03-17T21:41:16.318Z,8.10
2019-03-17T21:43:58.550Z,8.00
2019-03-17T21:46:19.567Z,8.10
2019-03-17T21:48:50.253Z,8.00
2019-03-17T21:51:20.880Z,8.00
2019-03-17T21:53:51.611Z,7.90
2019-03-17T21:56:22.428Z,7.90
2019-03-17T21:58:53.003Z,7.80
2019-03-17T22:01:24.057Z,7.80
2019-03-17T22:03:54.683Z,7.70
2019-03-17T22:06:25.263Z,7.70
2019-03-17T22:08:55.828Z,7.70
2019-03-17T22:11:27.552Z,7.60
2019-03-17T22:13:58.112Z,7.60
2019-03-17T22:16:29.773Z,7.50
2019-03-17T22:19:00.614Z,7.50
2019-03-17T22:21:31.390Z,7.50
2019-03-17T22:24:02.086Z,7.50
2019-03-17T22:26:32.777Z,7.50
2019-03-17T22:29:04.472Z,7.50
2019-03-17T22:31:35.155Z,7.50
2019-03-17T22:34:08.240Z,7.50
2019-03-17T22:36:38.581Z,7.50
2019-03-17T22:39:11.296Z,7.40
2019-03-17T22:41:41.819Z,7.40
2019-03-17T22:44:23.960Z,7.30
2019-03-17T22:46:45.077Z,7.20
2019-03-17T22:49:15.831Z,7.20
2019-03-17T22:51:46.495Z,7.30
2019-03-17T22:54:17.246Z,7.30
2019-03-17T22:56:48.943Z,7.20
2019-03-17T22:59:19.591Z,7.20
2019-03-17T23:01:50.303Z,7.20
2019-03-17T23:04:22.115Z,7.30
2019-03-17T23:06:53.005Z,7.20
2019-03-17T23:09:23.712Z,7.20
2019-03-17T23:11:54.883Z,7.10
2019-03-17T23:14:36.192Z,7.00
2019-03-17T23:16:57.964Z,7.00
2019-03-17T23:19:28.802Z,6.90
2019-03-17T23:21:59.505Z,6.90
2019-03-17T23:24:30.497Z,6.90
2019-03-17T23:27:01.321Z,6.80
2019-03-17T23:29:32.410Z,6.80
2019-03-17T23:32:03.080Z,6.70
2019-03-17T23:34:34.986Z,6.70
2019-03-17T23:37:05.728Z,6.60
2019-03-17T23:39:36.357Z,6.60
2019-03-17T23:42:06.862Z,6.50
2019-03-17T23:44:48.500Z,6.50
2019-03-17T23:47:11.005Z,6.50
2019-03-17T23:49:41.628Z,6.50
2019-03-17T23:52:12.564Z,6.40
2019-03-17T23:54:43.308Z,6.40
2019-03-17T23:57:13.948Z,6.40
2019-03-17T23:59:44.602Z,6.30
